Terminal Aerodrome Forecast
Issued by NWS

Home | Current Version | Previous Version | Text Only | Print | Product List | Glossary On
Versions: 1 2 3 4 5 6 7 8 9 10 11 12 13 14 15 16 17 18 19 20 21 22 23 24 25 26 27
945
FTUS43 KDLH 060931 AAA
TAFHYR
TAF AMD
KHYR 060931Z 0610/0706 18010G18KT P6SM VCSH OVC012
      TEMPO 0610/0611 4SM -SHSNRA
     FM061200 20010KT P6SM VCSH OVC025
     FM061400 22010G17KT P6SM VCSH OVC012
     FM062000 22015G25KT P6SM VCSH OVC015=

USA.gov is the U.S. government's official web portal to all federal, state and local government web resources and services.